• Join FlightAware (Why Join?)
  • Login
  • US Flag 
09:43PM EDT


 

Airport Tracker/Info


-or-


 

Live Flight TrackerFlight Track Log ✈ DAL1884 ✈ 26-Jun-2013 ✈ KIAH - KATL

Flight Track Log - Related Links

Times and Time Zones

All times are in EDT time to prevent confusion due to time zone crossing. See the DAL1884 flight status page for this flight to view local times or setup timezone preferences in your user account.

Time Position Orientation Groundspeed Altitude Reporting Facility
EDT Latitude Longitude Course Direction KTS MPH feet Rate Location/Type
07:04AM 29.9592 -95.3392 90° East 159 183 1,000  Level Houston Center
07:05AM 29.9328 -95.2794 117° Southeast 231 266 3,300 2,400 Climbing Houston Center
07:06AM 29.9292 -95.1956 93° East 289 333 6,200 3,060 Climbing Houston Center
07:07AM 29.9834 -94.9426 90° East  Level FlightAware Approximate
07:07AM 29.9350 -95.1008 86° East 292 336 9,500  Level Houston Center
07:08AM 29.9834 -94.8124 90° East  Level FlightAware Approximate
07:09AM 29.9833 -94.6822 90° East  Level FlightAware Approximate
07:09AM 29.9458 -94.9817 84° East 319 367 11,800  Level Houston Center
07:10AM 29.9539 -94.8617 86° East 369 425 14,300 2,400 Climbing Houston Center
07:11AM 29.9636 -94.7364 85° East 387 445 16,700 2,280 Climbing Houston Center
07:12AM 29.9733 -94.6089 85° East 397 457 18,900 2,220 Climbing Houston Center
07:13AM 29.9842 -94.4778 85° East 408 470 21,300 1,860 Climbing Houston Center
07:14AM 29.9931 -94.3569 85° East 412 474 22,700 1,680 Climbing Houston Center
07:15AM 30.0061 -94.2197 84° East 427 491 24,700 1,680 Climbing Houston Center
07:16AM 30.0242 -94.0806 81° East 438 504 26,200 1,440 Climbing Houston Center
07:17AM 30.0422 -93.9403 82° East 445 512 27,700 1,560 Climbing Houston Center
07:18AM 30.0622 -93.7678 82° East 453 521 29,400 1,380 Climbing Houston Center
07:19AM 30.0800 -93.6231 82° East 458 527 30,600 1,140 Climbing Houston Center
07:20AM 30.0964 -93.4767 83° East 466 536 31,800 1,380 Climbing Houston Center
07:21AM 30.1133 -93.3317 82° East 465 535 33,500 1,380 Climbing Houston Center
07:22AM 30.1297 -93.1883 82° East 457 526 34,700 1,260 Climbing Houston Center
07:23AM 30.1511 -93.0481 80° East 451 519 36,100 1,080 Climbing Houston Center
07:24AM 30.1789 -92.9119 77° East 441 507 36,900 420 Climbing Houston Center
07:25AM 30.2056 -92.7744 77° East 440 506 37,000  Climbing Houston Center
07:26AM 30.2317 -92.6358 78° East 443 510 37,000  Level Houston Center
07:27AM 30.2647 -92.4711 77° East 441 507 37,000 -60 Level Houston Center
07:28AM 30.2903 -92.3325 78° East 443 510 36,900  Descending Houston Center
07:29AM 30.3186 -92.1886 77° East 444 511 37,000 60 Climbing Houston Center
07:30AM 30.3444 -92.0492 78° East 445 512 37,100  Climbing Houston Center
07:31AM 30.3706 -91.9108 78° East 444 511 37,100 -60 Level Houston Center
07:32AM 30.3969 -91.7728 77° East 443 510 37,000 -60 Descending Houston Center
07:33AM 30.4203 -91.6506 77° East 441 507 37,000  Level Houston Center
07:34AM 30.4453 -91.5114 78° East 442 509 37,000  Level Houston Center
07:35AM 30.4764 -91.3450 78° East 441 507 37,000  Level Houston Center
07:36AM 30.5058 -91.2081 76° East 438 504 37,000  Level Houston Center
07:37AM 30.5372 -91.0733 75° East 435 501 37,000  Level Houston Center
07:38AM 30.5678 -90.9372 75° East 436 502 37,000  Level Houston Center
07:39AM 30.5989 -90.8019 75° East 435 501 37,000  Level Houston Center
07:40AM 30.6292 -90.6672 75° East 433 498 37,000  Level Houston Center
07:41AM 30.6594 -90.5319 75° East 432 497 37,000 -480 Level Houston Center
07:42AM 30.6900 -90.3972 75° East 430 495 36,100 -960 Descending Houston Center
07:43AM 30.7197 -90.2614 76° East 432 497 35,100 -1,020 Descending Houston Center
07:44AM 30.7500 -90.1247 76° East 433 498 34,100 -1,020 Descending Houston Center
07:45AM 30.7803 -89.9836 76° East 444 511 33,100 -600 Descending Houston Center
07:46AM 30.8119 -89.8411 75° East 450 518 33,000 -60 Descending Houston Center
07:47AM 30.8425 -89.6994 76° East 450 518 33,000  Level Houston Center
07:48AM 30.8731 -89.5594 76° East 446 513 33,000  Level Houston Center
07:49AM 30.9094 -89.3889 76° East 450 518 33,000  Level Houston Center
07:50AM 30.9400 -89.2469 76° East 451 519 33,000  Level Houston Center
07:51AM 30.9689 -89.1042 77° East 451 519 33,000  Level Houston Center
07:52AM 30.9981 -88.9628 76° East 449 517 33,000  Level Houston Center
07:53AM 31.0242 -88.8375 76° East 449 517 33,000  Level Houston Center
07:54AM 31.0594 -88.6669 76° East 450 518 33,000  Level Houston Center
07:55AM 31.0894 -88.5378 75° East 450 518 33,000  Level Houston Center
07:56AM 31.1472 -88.4097 62° Northeast 443 510 33,000  Level Houston Center
07:57AM 31.2158 -88.2892 56° Northeast 457 526 33,000  Level Houston Center
07:58AM 31.3033 -88.1578 52° Northeast 448 516 33,000  Level Houston Center
08:00AM 31.3758 -88.0386 55° Northeast 447 514 33,000  Level Houston Center
08:01AM 31.4467 -87.9197 55° Northeast 446 513 33,000  Level Houston Center
08:02AM 31.5183 -87.8031 54° Northeast 444 511 33,000  Level Houston Center
08:03AM 31.5897 -87.6844 55° Northeast 444 511 33,000  Level Houston Center
08:04AM 31.6617 -87.5664 54° Northeast 444 511 33,000  Level Houston Center
08:05AM 31.7544 -87.4264 52° Northeast 436 502 33,000  Level Atlanta Center
08:06AM 31.8269 -87.2947 57° Northeast 436 502 33,100  Climbing Atlanta Center
08:07AM 31.8989 -87.1725 55° Northeast 436 502 33,100 -420 Level Atlanta Center
08:08AM 31.9708 -87.0550 54° Northeast 436 502 32,300 -900 Descending Atlanta Center
08:09AM 32.0425 -86.9325 55° Northeast 436 502 31,300 -1,020 Descending Atlanta Center
08:10AM 32.1164 -86.8097 55° Northeast 442 509 30,300 -960 Descending Atlanta Center
08:11AM 32.1897 -86.7017 51° Northeast 447 514 29,400 -960 Descending Atlanta Center
08:12AM 32.2611 -86.5786 56° Northeast 452 520 28,400 -1,020 Descending Atlanta Center
08:13AM 32.3347 -86.4478 56° Northeast 457 526 27,400 -720 Descending Atlanta Center
08:14AM 32.3997 -86.3242 58° Northeast 463 533 27,000 -420 Descending Atlanta Center
08:15AM 32.4750 -86.1981 55° Northeast 456 525 26,600 -720 Descending Atlanta Center
08:16AM 32.5522 -86.0719 54° Northeast 463 533 25,600 -1,020 Descending Atlanta Center
08:17AM 32.6231 -85.9478 56° Northeast 463 533 24,600 -1,020 Descending Atlanta Center
08:18AM 32.6894 -85.8306 56° Northeast 446 513 23,600 -1,020 Descending Atlanta Center
08:19AM 32.7558 -85.7183 55° Northeast 426 490 22,600 -900 Descending Atlanta Center
08:20AM 32.8072 -85.6281 56° Northeast 420 483 21,800 -1,020 Descending Atlanta Center
08:21AM 32.8839 -85.4958 55° Northeast 414 476 20,600 -1,140 Descending Atlanta Center
08:22AM 32.9478 -85.3878 55° Northeast 409 471 19,600 -1,260 Descending Atlanta Center
08:23AM 33.0094 -85.2800 56° Northeast 397 457 18,100 -1,800 Descending Atlanta Center
08:24AM 33.0708 -85.1842 53° Northeast 380 437 16,000 -1,800 Descending Atlanta Center
08:25AM 33.1406 -85.0931 48° Northeast 367 422 14,600 -1,020 Descending Atlanta Center
08:26AM 33.1997 -85.0144 48° Northeast 328 377 14,000 -1,200 Descending Atlanta Center
08:27AM 33.2567 -84.9381 48° Northeast 309 356 12,300 -1,020 Descending Atlanta Center
08:28AM 33.3178 -84.8542 49° Northeast 303 349 12,000 -120 Descending Atlanta Center
08:29AM 33.3747 -84.7775 48° Northeast 303 349 12,100  Climbing Atlanta Center
08:30AM 33.4333 -84.7008 47° Northeast 303 349 12,000 -60 Descending Atlanta Center
08:31AM 33.4861 -84.6317 48° Northeast 298 343 12,000  Level Atlanta Center
08:32AM 33.5508 -84.6097 16° North 246 283 12,000  Level Atlanta Center
08:33AM 33.5553 -84.5300 86° East 216 249 12,000 -600 Level Atlanta Center
08:34AM 33.5514 -84.4550 94° East 210 242 10,900 -1,380 Descending Atlanta Center
08:35AM 33.5500 -84.3500 91° East 220 253 8,800 -1,500 Descending Atlanta TRACON
08:36AM 33.5500 -84.2833 90° East 215 247 7,400 -1,500 Descending Atlanta TRACON
08:37AM 33.5500 -84.2000 90° East 215 247 5,900 -1,440 Descending Atlanta TRACON
08:38AM 33.5333 -84.1500 112° Southeast 216 249 4,700 -1,020 Descending Atlanta TRACON
08:39AM 33.5333 -84.0667 90° East 218 251 4,000 -360 Descending Atlanta TRACON
08:40AM 33.5333 -84.0000 90° East 216 249 4,000  Level Atlanta TRACON
08:41AM 33.5667 -83.9500 51° Northeast 220 253 4,000  Level Atlanta TRACON
08:42AM 33.6167 -83.9833 331° Northwest 194 223 4,000  Level Atlanta TRACON
08:43AM 33.6167 -84.0500 270° West 183 211 4,000  Level Atlanta TRACON
08:44AM 33.6167 -84.1000 270° West 183 211 4,000  Level Atlanta TRACON
08:45AM 33.6167 -84.1667 270° West 180 207 4,000  Level Atlanta TRACON
08:46AM 33.6167 -84.2333 270° West 175 201 4,000  Level Atlanta TRACON